Nearby METAR Reports

 

KCXY - Harrisburg, Pennsylvania, USA
Distance from station: E 9mi, 14km
Updated: Sun, 26-May-2019 12:56am EDT
Mostly cloudy
Mostly cloudy
 Wind from SE
Wind: SE 3 mph , 6 km/h
Temperature: 70°F , 21°C
Dew Point: 64°F , 18°C
Humidity: 83%
Barometer: 30.00 inHg , 1015.9 hPa
Clouds: Mostly cloudy
Visibility: 10 miles , 16 km
Cloud details: Mostly cloudy 12000 ft
2019/05/26 04:56 KCXY 260456Z AUTO 14003KT 10SM BKN120 21/18 A3000 RMK AO2 SLP157 T02060178 402610172
KMDT - Middletown, Pennsylvania, USA
Distance from station: E 13mi, 21km
Updated: Sun, 26-May-2019 1:25am EDT
Mostly cloudy
Mostly cloudy
 Wind from SE
Wind: SE 5 mph , 7 km/h
Temperature: 68°F , 20°C
Dew Point: 64°F , 18°C
Humidity: 88%
Barometer: 29.99 inHg , 1015.6 hPa
Clouds: Mostly cloudy
Visibility: 10 miles , 16 km
Cloud details: Mostly cloudy 1500 ft
Mostly cloudy 12000 ft
2019/05/26 05:25 KMDT 260525Z 14004KT 10SM BKN015 BKN120 20/18 A2999 RMK AO2 T02000178
 
KTHV - York, Pennsylvania, USA
Distance from station: SSE 22mi, 36km
Updated: Sun, 26-May-2019 12:53am EDT
Mostly cloudy
Mostly cloudy
 Wind from varies
Wind: varies 3 mph , 6 km/h
Temperature: 66°F , 19°C
Dew Point: 64°F , 18°C
Humidity: 94%
Barometer: 30.01 inHg , 1016.3 hPa
Clouds: Mostly cloudy
Visibility: 10 miles , 16 km
Cloud details: Mostly cloudy 11000 ft
2019/05/26 04:53 KTHV 260453Z AUTO VRB03KT 10SM BKN110 19/18 A3001 RMK AO2 SLP160 T01940178 402440161
KMUI - Muir Aaf/Indiant, Pennsylvania, USA
Distance from station: ENE 27mi, 44km
Updated: Sun, 26-May-2019 12:56am EDT
Overcast
Overcast
 Wind from calm
Wind: Calm
Temperature: 63°F , 17°C
Dew Point: 61°F , 16°C
Humidity: 94%
Barometer: 30.02 inHg , 1016.6 hPa
Clouds: Overcast
Visibility: 10 miles , 16 km
Cloud details: Overcast 1800 ft
2019/05/26 04:56 KMUI 260456Z AUTO 00000KT 10SM OVC018 17/16 A3002 RMK AO2 SLP167 T01680156 402370152
 
KLNS - Lancaster, Pennsylvania, USA
Distance from station: E 38mi, 62km
Updated: Sun, 26-May-2019 1:27am EDT
Mostly cloudy
Mostly cloudy
 Wind from E
Wind: E 5 mph , 7 km/h
Temperature: 63°F , 17°C
Dew Point: 61°F , 16°C
Humidity: 94%
Barometer: 30.00 inHg , 1015.9 hPa
Clouds: Mostly cloudy
Visibility: 10 miles , 16 km
Cloud details: Partly cloudy 1700 ft
Mostly cloudy 12000 ft
2019/05/26 05:27 KLNS 260527Z AUTO 10004KT 10SM SCT017 BKN120 17/16 A3000 RMK AO2 T01720156
KRYT - Fountain Dale, Pennsylvania, USA
Distance from station: SSW 40mi, 65km
Updated: Mon, 13-Nov-2017 7:53am EST
NOT Current
Mist, Overcast
Mist, Overcast
 Wind from calm
Wind: Calm
Temperature: 37°F , 3°C
Dew Point: 34°F , 1°C
Humidity: 87%
Barometer: 30.31 inHg , 1026.4 hPa
Summary: Mist
Clouds: Overcast
Visibility: 5 miles , 8 km
Cloud details: Overcast 700 ft
2017/11/13 12:53 KRYT 131253Z AUTO 00000KT 5SM BR OVC007 03/01 A3031 RMK AO2 SLP275 T00280011 TSNO $
 
KSEG - Selinsgrove, Pennsylvania, USA
Distance from station: N 42mi, 67km
Updated: Sun, 26-May-2019 12:53am EDT
Clear
Clear
 Wind from varies
Wind: varies 5 mph , 7 km/h
Temperature: 64°F , 18°C
Dew Point: 63°F , 17°C
Humidity: 94%
Barometer: 29.98 inHg , 1015.2 hPa
Clouds: Clear
Visibility: 10 miles , 16 km
2019/05/26 04:53 KSEG 260453Z AUTO VRB04KT 10SM CLR 18/17 A2998 RMK AO2 SLP150 T01830172 402440139
KDMW - Carroll Cnty, Maryland, USA
Distance from station: S 43mi, 69km
Updated: Sun, 26-May-2019 1:20am EDT
Partly cloudy
Partly cloudy
 Wind from S
Wind: S 7 mph , 11 km/h
Temperature: 68°F , 20°C
Dew Point: 66°F , 19°C
Humidity: 94%
Barometer: 30.03 inHg , 1016.9 hPa
Clouds: Partly cloudy
Visibility: 10 miles , 16 km
Cloud details: Partly cloudy 10000 ft
2019/05/26 05:20 KDMW 260520Z AUTO 17006KT 10SM SCT100 20/19 A3003 RMK AO2 LTG DSNT SE
 
KRSP - Camp David, Maryland, USA
Distance from station: SSW 46mi, 74km
Updated: Sat, 18-May-2019 1:54pm EDT
NOT Current

 
2019/05/18 17:54 KRSP 181754Z AUTO VRB04KTLS21/16 A3004 RMK AO2 SLP168 T02110161 10228 20172 $